Azalea, OR

8:22 AM PDT on August 28, 2014 (GMT -0700)
wolf creek | Change Station
CLOSE
Current Station
Personal Weather Station
Location: Wolf Creek, OR
Elevation: 1503 ft
Nearby Weather Stations

Elev 1503 ft 42.71 °N, 123.37 °W | Updated 3 seconds ago

Clear
Clear
61.0 °F
Feels Like 61.0 °F
N
0.0
Wind Variable Wind from NNW
Gusts 0.0 mph

Today
High -- | Low -- °F
--% Chance of Precip.
Yesterday
High -- | Low -- °F
Precip. -- in
6:33 AM 7:53 PM
Waxing Crescent, 8% visible
Pressure 30.09 in
Visibility 10.0 miles
Clouds Clear
Dew Point 52 °F
Humidity 73%
Rainfall 0.00 in
Snow Depth Not available.
UV 0 out of 12
Pollen 6.60 out of 12
Air Quality Not available.
Flu Activity Not available.
METAR KRBG 281353Z AUTO 00000KT 10SM CLR 16/11 A3010 RMK AO2 SLP188 T01610111

More Conditions Fewer Conditions

Pressure 30.09 in
Visibility 10.0 miles
Clouds Clear
Dew Point 52 °F
Humidity 73%
Rainfall 0.00 in
Snow Depth Not available.
UV 0 out of 12
Pollen 6.60 out of 12
Air Quality Not available.
Flu Activity Not available.
METAR KRBG 281353Z AUTO 00000KT 10SM CLR 16/11 A3010 RMK AO2 SLP188 T01610111

More Conditions Fewer Conditions

10-Day Weather Forecast

Almanac

Astronomy

Aug. 28, 2014 Rise Set
Actual Time 6:33 AM PDT 7:53 PM PDT
Civil Twilight 6:03 AM PDT 8:23 PM PDT
Nautical Twilight 5:28 AM PDT 8:58 PM PDT
Astronomical Twilight 4:51 AM PDT 9:35 PM PDT
Moon 9:36 AM PDT 9:15 PM PDT
Length of Visible Light 14h 19m
Length of Day
13h 20m
Tomorrow will be 2m 46s shorter.
Waxing Crescent, 8% of the Moon is Illuminated
Today
Waxing Crescent
Sep 2
First Quarter
Sep 8
Full
Sep 15
Last Quarter
Sep 24
New

Today's Extremes

State Highs State Lows

Community

WunderPhotos

Upload Photos

1,747,984 photos uploaded!

Nearby

Snow Depth

Station Depth Elevation
Bigelow Camp 1 in 5120 ft
Fish Lake 0 in 4665 ft
Annie Springs 0 in 6020 ft
Billie Creek Divide 0 in 5300 ft
Big Red Mountain 0 in 6250 ft

Earthquake Activity

City Distance Mag. Time & Date
No recent earthquake activity has been reported nearby.
Minimum magnitude displayed is 2.5.

Coastal Water Temperatures

Place Temperature
No Stations Reporting

Nearby Weather Stations